createdAt,value
2023-03-19T00:02:17.570Z,73.53
2023-03-19T00:04:58.685Z,62.03
2023-03-19T00:07:39.771Z,52.72
2023-03-19T00:10:29.167Z,55.17
2023-03-19T00:13:10.140Z,52.28
2023-03-19T00:15:54.329Z,44.90
2023-03-19T00:18:49.341Z,43.08
2023-03-19T00:21:35.519Z,37.10
2023-03-19T00:24:25.235Z,38.70
2023-03-19T00:27:13.757Z,34.30
2023-03-19T00:29:55.460Z,36.08
2023-03-19T00:32:40.392Z,33.45
2023-03-19T00:35:25.462Z,35.28
2023-03-19T00:38:11.497Z,33.47
2023-03-19T00:40:55.631Z,37.25
2023-03-19T00:43:46.586Z,36.92
2023-03-19T00:46:36.826Z,39.63
2023-03-19T00:49:16.283Z,36.08
2023-03-19T00:51:58.017Z,32.67
2023-03-19T00:54:44.460Z,39.20
2023-03-19T00:57:28.109Z,35.35
2023-03-19T01:00:08.752Z,35.20
2023-03-19T01:02:54.359Z,35.95
2023-03-19T01:05:39.882Z,37.92
2023-03-19T01:08:21.296Z,36.33
2023-03-19T01:11:11.251Z,37.13
2023-03-19T01:13:54.265Z,40.97
2023-03-19T01:16:40.333Z,41.17
2023-03-19T01:19:29.355Z,38.00
2023-03-19T01:22:13.062Z,41.20
2023-03-19T01:24:54.085Z,41.72
2023-03-19T01:27:37.724Z,47.38
2023-03-19T01:30:33.073Z,53.95
2023-03-19T01:33:26.100Z,74.07
2023-03-19T01:36:10.211Z,40.25
2023-03-19T01:39:06.161Z,40.65
2023-03-19T01:41:41.878Z,40.50
2023-03-19T01:44:43.257Z,65.70
2023-03-19T01:47:40.654Z,100.75
2023-03-19T01:50:35.497Z,148.75
2023-03-19T01:53:46.685Z,176.07
2023-03-19T01:56:44.241Z,137.30
2023-03-19T01:59:51.353Z,114.22
2023-03-19T02:03:01.082Z,107.63
2023-03-19T02:06:01.950Z,89.32
2023-03-19T02:08:51.555Z,53.53
2023-03-19T02:11:29.217Z,55.50
2023-03-19T02:14:09.934Z,70.97
2023-03-19T02:16:47.849Z,89.30
2023-03-19T02:19:51.657Z,82.32
2023-03-19T02:22:34.919Z,98.47
2023-03-19T02:25:55.229Z,104.70
2023-03-19T02:28:40.764Z,72.50
2023-03-19T02:31:22.985Z,82.65
2023-03-19T02:34:38.853Z,67.68
2023-03-19T02:37:22.595Z,74.40
2023-03-19T02:40:22.773Z,72.07
2023-03-19T02:43:10.316Z,83.78
2023-03-19T02:45:52.961Z,68.10
2023-03-19T02:48:36.678Z,68.18
2023-03-19T02:51:20.355Z,68.18
2023-03-19T02:54:06.229Z,72.88
2023-03-19T02:56:52.060Z,37.33
2023-03-19T02:59:33.683Z,28.30
2023-03-19T03:02:19.263Z,25.13
2023-03-19T03:05:02.086Z,28.40
2023-03-19T03:07:44.671Z,25.80
2023-03-19T03:10:25.615Z,25.83
2023-03-19T03:13:11.292Z,24.85
2023-03-19T03:15:53.664Z,28.30
2023-03-19T03:18:31.351Z,24.92
2023-03-19T03:21:17.381Z,29.05
2023-03-19T03:24:09.570Z,26.75
2023-03-19T03:26:59.121Z,34.63
2023-03-19T03:29:37.939Z,33.78
2023-03-19T03:32:18.941Z,30.80
2023-03-19T03:35:02.105Z,31.35
2023-03-19T03:37:49.122Z,32.47
2023-03-19T03:40:34.939Z,34.17
2023-03-19T03:43:18.063Z,33.30
2023-03-19T03:45:56.162Z,34.90
2023-03-19T03:48:38.265Z,33.35
2023-03-19T03:51:11.686Z,34.33
2023-03-19T03:56:24.965Z,32.28
2023-03-19T03:59:11.601Z,34.92
2023-03-19T04:01:50.202Z,32.10
2023-03-19T04:04:33.910Z,33.28
2023-03-19T04:07:14.313Z,31.33
2023-03-19T04:10:03.432Z,37.95
2023-03-19T04:12:45.959Z,36.65
2023-03-19T04:15:19.185Z,38.80
2023-03-19T04:17:56.158Z,37.97
2023-03-19T04:20:45.124Z,37.90
2023-03-19T04:23:20.127Z,40.17
2023-03-19T04:26:05.557Z,41.42
2023-03-19T04:28:43.740Z,30.02
2023-03-19T04:31:27.398Z,31.38
2023-03-19T04:34:09.037Z,40.92
2023-03-19T04:36:52.961Z,39.05
2023-03-19T04:39:39.979Z,33.67
2023-03-19T04:42:20.688Z,31.77
2023-03-19T04:45:27.998Z,35.42
2023-03-19T04:48:11.231Z,43.10
2023-03-19T04:50:52.346Z,40.30
2023-03-19T04:53:35.823Z,61.17
2023-03-19T04:56:19.507Z,114.13
2023-03-19T04:59:02.432Z,123.55
2023-03-19T05:01:34.814Z,99.53
2023-03-19T05:04:13.749Z,101.43
2023-03-19T05:06:55.403Z,99.22
2023-03-19T05:09:39.613Z,74.40
2023-03-19T05:12:22.818Z,48.42
2023-03-19T05:14:59.230Z,43.80
2023-03-19T05:17:49.497Z,49.78
2023-03-19T05:20:56.108Z,59.58
2023-03-19T05:23:57.218Z,59.65
2023-03-19T05:26:38.837Z,49.95
2023-03-19T05:29:41.726Z,45.97
2023-03-19T05:32:52.002Z,40.38
2023-03-19T05:36:03.641Z,40.58
2023-03-19T05:39:08.144Z,38.50
2023-03-19T05:42:07.666Z,38.20
2023-03-19T05:44:52.447Z,37.30
2023-03-19T05:47:34.192Z,37.80
2023-03-19T05:50:20.327Z,32.92
2023-03-19T05:53:26.793Z,34.95
2023-03-19T05:56:28.633Z,37.25
2023-03-19T05:59:42.761Z,35.83
2023-03-19T06:02:48.955Z,33.28
2023-03-19T06:05:43.187Z,40.17
2023-03-19T06:08:35.805Z,32.88
2023-03-19T06:11:33.681Z,25.30
2023-03-19T06:14:38.453Z,32.58
2023-03-19T06:17:51.232Z,33.50
2023-03-19T06:20:42.499Z,27.90
2023-03-19T06:23:28.344Z,24.85
2023-03-19T06:26:08.960Z,27.15
2023-03-19T06:28:59.340Z,25.33
2023-03-19T06:31:45.647Z,27.67
2023-03-19T06:34:49.822Z,22.38
2023-03-19T06:37:34.609Z,23.25
2023-03-19T06:40:18.545Z,22.38
2023-03-19T06:42:57.635Z,22.15
2023-03-19T06:45:36.353Z,27.02
2023-03-19T06:48:20.224Z,21.15
2023-03-19T06:50:56.841Z,24.70
2023-03-19T06:53:42.107Z,21.38
2023-03-19T06:56:25.535Z,19.98
2023-03-19T06:59:11.716Z,15.50
2023-03-19T07:02:05.754Z,16.50
2023-03-19T07:04:52.429Z,15.43
2023-03-19T07:07:37.969Z,13.98
2023-03-19T07:10:27.721Z,12.52
2023-03-19T07:13:04.531Z,15.75
2023-03-19T07:15:53.221Z,14.35
2023-03-19T07:18:37.159Z,12.50
2023-03-19T07:21:29.386Z,13.45
2023-03-19T07:24:07.762Z,13.45
2023-03-19T07:26:57.425Z,12.35
2023-03-19T07:29:46.676Z,13.27
2023-03-19T07:32:32.767Z,15.15
2023-03-19T07:35:14.458Z,7.38
2023-03-19T07:37:55.544Z,18.05
2023-03-19T07:40:59.038Z,11.88
2023-03-19T07:43:46.659Z,11.90
2023-03-19T07:46:31.484Z,10.38
2023-03-19T07:49:20.749Z,11.10
2023-03-19T07:52:14.454Z,14.30
2023-03-19T07:54:50.153Z,13.05
2023-03-19T07:57:33.159Z,12.70
2023-03-19T08:00:23.773Z,10.13
2023-03-19T08:03:05.524Z,10.60
2023-03-19T08:06:02.535Z,10.85
2023-03-19T08:08:46.806Z,10.63
2023-03-19T08:11:29.871Z,10.57
2023-03-19T08:14:26.636Z,9.95
2023-03-19T08:17:02.056Z,9.20
2023-03-19T08:19:54.168Z,9.85
2023-03-19T08:22:41.884Z,12.68
2023-03-19T08:25:26.968Z,11.10
2023-03-19T08:28:16.877Z,9.65
2023-03-19T08:31:03.185Z,11.70
2023-03-19T08:33:49.184Z,11.63
2023-03-19T08:36:42.225Z,10.35
2023-03-19T08:39:20.384Z,9.30
2023-03-19T08:41:58.677Z,11.65
2023-03-19T08:44:49.484Z,11.90
2023-03-19T08:47:36.121Z,12.20
2023-03-19T08:50:16.827Z,8.38
2023-03-19T08:53:01.952Z,9.80
2023-03-19T08:55:51.064Z,11.48
2023-03-19T08:58:32.663Z,11.35
2023-03-19T09:01:21.662Z,10.68
2023-03-19T09:04:05.682Z,10.63
2023-03-19T09:06:51.611Z,15.18
2023-03-19T09:09:43.610Z,11.98
2023-03-19T09:12:29.935Z,11.73
2023-03-19T09:15:13.348Z,12.50
2023-03-19T09:18:04.685Z,9.23
2023-03-19T09:20:50.670Z,13.10
2023-03-19T09:23:38.581Z,9.77
2023-03-19T09:26:18.028Z,10.63
2023-03-19T09:29:05.687Z,12.35
2023-03-19T09:31:46.965Z,9.95
2023-03-19T09:34:33.769Z,8.75
2023-03-19T09:37:17.272Z,9.88
2023-03-19T09:40:00.878Z,12.80
2023-03-19T09:43:00.794Z,11.57
2023-03-19T09:45:45.613Z,10.38
2023-03-19T09:48:48.211Z,16.17
2023-03-19T09:51:30.564Z,13.50
2023-03-19T09:54:28.613Z,9.13
2023-03-19T09:57:15.116Z,8.10
2023-03-19T09:59:58.349Z,9.50
2023-03-19T10:03:03.637Z,10.47
2023-03-19T10:06:29.415Z,8.73
2023-03-19T10:09:52.424Z,8.35
2023-03-19T10:13:00.587Z,11.77
2023-03-19T10:15:41.142Z,10.30
2023-03-19T10:19:00.592Z,9.85
2023-03-19T10:22:01.118Z,7.88
2023-03-19T10:24:59.788Z,10.00
2023-03-19T10:27:37.107Z,9.63
2023-03-19T10:30:19.707Z,10.63
2023-03-19T10:33:27.546Z,7.88
2023-03-19T10:36:16.502Z,11.90
2023-03-19T10:39:09.809Z,10.10
2023-03-19T10:42:14.442Z,8.70
2023-03-19T10:45:24.247Z,15.77
2023-03-19T10:48:08.865Z,10.15
2023-03-19T10:51:15.023Z,10.45
2023-03-19T10:56:53.412Z,11.68
2023-03-19T10:59:39.371Z,10.38
2023-03-19T11:02:50.623Z,9.30
2023-03-19T11:05:38.744Z,11.30
2023-03-19T11:08:34.904Z,17.52
2023-03-19T11:11:45.497Z,10.15
2023-03-19T11:14:46.442Z,13.18
2023-03-19T11:18:00.481Z,13.43
2023-03-19T11:20:45.717Z,13.17
2023-03-19T11:23:40.089Z,11.57
2023-03-19T11:26:32.661Z,9.60
2023-03-19T11:29:20.934Z,10.10
2023-03-19T11:32:25.782Z,11.43
2023-03-19T11:35:25.875Z,10.70
2023-03-19T11:38:14.652Z,9.98
2023-03-19T11:41:06.300Z,10.95
2023-03-19T11:43:50.009Z,10.40
2023-03-19T11:46:42.940Z,8.63
2023-03-19T11:49:46.520Z,10.38
2023-03-19T11:52:58.659Z,7.78
2023-03-19T11:55:55.152Z,9.48
2023-03-19T11:59:09.477Z,11.73
2023-03-19T12:02:09.347Z,10.32
2023-03-19T12:04:56.752Z,11.48
2023-03-19T12:07:52.682Z,8.65
2023-03-19T12:10:57.660Z,9.25
2023-03-19T12:14:08.033Z,14.18
2023-03-19T12:17:06.728Z,9.07
2023-03-19T12:20:07.018Z,10.30
2023-03-19T12:23:19.674Z,6.55
2023-03-19T12:26:25.011Z,7.35
2023-03-19T12:29:18.664Z,7.53
2023-03-19T12:32:20.979Z,9.25
2023-03-19T12:35:11.124Z,13.32
2023-03-19T12:38:01.771Z,8.27
2023-03-19T12:40:58.482Z,7.35
2023-03-19T12:43:54.867Z,7.55
2023-03-19T12:46:39.102Z,9.52
2023-03-19T12:49:38.826Z,8.25
2023-03-19T12:52:27.786Z,7.35
2023-03-19T12:55:36.575Z,7.82
2023-03-19T12:58:28.403Z,5.85
2023-03-19T13:01:29.947Z,7.05
2023-03-19T13:04:29.279Z,8.48
2023-03-19T13:08:00.037Z,8.98
2023-03-19T13:10:46.377Z,6.90
2023-03-19T13:13:51.659Z,6.22
2023-03-19T13:16:41.449Z,7.95
2023-03-19T13:19:46.017Z,5.28
2023-03-19T13:22:22.767Z,8.98
2023-03-19T13:24:59.705Z,7.00
2023-03-19T13:27:41.664Z,6.65
2023-03-19T13:30:29.372Z,8.75
2023-03-19T13:33:25.829Z,6.57
2023-03-19T13:36:07.256Z,10.43
2023-03-19T13:38:50.855Z,8.50
2023-03-19T13:41:51.543Z,8.15
2023-03-19T13:44:46.701Z,11.63
2023-03-19T13:48:04.655Z,10.55
2023-03-19T13:51:36.697Z,8.20
2023-03-19T13:54:25.411Z,8.02
2023-03-19T13:57:18.664Z,7.82
2023-03-19T14:00:22.766Z,9.70
2023-03-19T14:03:38.439Z,11.32
2023-03-19T14:06:36.756Z,9.65
2023-03-19T14:09:41.057Z,18.90
2023-03-19T14:12:40.108Z,10.10
2023-03-19T14:15:28.748Z,10.70
2023-03-19T14:18:19.433Z,14.30
2023-03-19T14:21:36.087Z,13.50
2023-03-19T14:24:58.763Z,12.32
2023-03-19T14:28:04.157Z,9.10
2023-03-19T14:30:54.982Z,12.77
2023-03-19T14:33:58.523Z,15.85
2023-03-19T14:36:51.898Z,9.02
2023-03-19T14:39:59.685Z,11.23
2023-03-19T14:42:58.774Z,12.75
2023-03-19T14:45:44.994Z,11.70
2023-03-19T14:49:03.226Z,10.60
2023-03-19T14:51:57.179Z,16.48
2023-03-19T14:55:10.310Z,11.52
2023-03-19T14:57:59.807Z,11.50
2023-03-19T15:03:44.529Z,11.98
2023-03-19T15:06:27.714Z,11.15
2023-03-19T15:09:29.776Z,14.10
2023-03-19T15:12:34.106Z,9.68
2023-03-19T15:15:40.791Z,11.07
2023-03-19T15:18:27.115Z,12.38
2023-03-19T15:21:11.468Z,10.00
2023-03-19T15:24:01.604Z,10.82
2023-03-19T15:26:44.004Z,7.50
2023-03-19T15:29:33.215Z,8.93
2023-03-19T15:32:49.780Z,9.93
2023-03-19T15:35:42.013Z,8.55
2023-03-19T15:38:26.228Z,9.88
2023-03-19T15:41:12.094Z,8.60
2023-03-19T15:43:58.546Z,12.77
2023-03-19T15:46:42.702Z,11.20
2023-03-19T15:49:40.214Z,13.38
2023-03-19T15:52:26.218Z,10.45
2023-03-19T15:55:09.370Z,14.30
2023-03-19T15:58:00.671Z,12.80
2023-03-19T16:00:47.487Z,8.82
2023-03-19T16:03:52.123Z,9.02
2023-03-19T16:06:51.799Z,15.85
2023-03-19T16:09:34.809Z,11.05
2023-03-19T16:12:43.005Z,16.40
2023-03-19T16:16:22.887Z,11.93
2023-03-19T16:19:12.573Z,21.50
2023-03-19T16:22:00.180Z,16.58
2023-03-19T16:25:25.955Z,17.70
2023-03-19T16:28:08.032Z,13.27
2023-03-19T16:30:57.213Z,10.80
2023-03-19T16:33:37.744Z,12.30
2023-03-19T16:36:20.188Z,12.68
2023-03-19T16:39:29.112Z,23.63
2023-03-19T16:42:42.708Z,16.73
2023-03-19T16:45:38.766Z,21.05
2023-03-19T16:48:29.652Z,18.88
2023-03-19T16:51:19.672Z,21.08
2023-03-19T16:54:00.112Z,18.10
2023-03-19T16:56:54.710Z,20.55
2023-03-19T16:59:38.644Z,16.42
2023-03-19T17:02:28.025Z,13.00
2023-03-19T17:05:04.052Z,15.43
2023-03-19T17:07:50.835Z,10.80
2023-03-19T17:10:49.074Z,14.38
2023-03-19T17:13:38.358Z,19.27
2023-03-19T17:16:20.653Z,15.30
2023-03-19T17:19:15.898Z,13.43
2023-03-19T17:21:57.117Z,15.65
2023-03-19T17:24:43.682Z,17.67
2023-03-19T17:27:22.706Z,20.48
2023-03-19T17:30:08.138Z,17.40
2023-03-19T17:32:58.025Z,15.90
2023-03-19T17:35:48.759Z,15.85
2023-03-19T17:38:34.141Z,13.98
2023-03-19T17:41:24.105Z,12.55
2023-03-19T17:44:09.339Z,21.27
2023-03-19T17:46:58.688Z,26.08
2023-03-19T17:49:35.253Z,21.30
2023-03-19T17:52:30.677Z,21.85
2023-03-19T17:55:25.183Z,17.95
2023-03-19T17:58:09.845Z,20.38
2023-03-19T18:01:02.556Z,22.52
2023-03-19T18:03:42.997Z,22.92
2023-03-19T18:06:20.611Z,23.23
2023-03-19T18:08:58.057Z,23.77
2023-03-19T18:11:44.077Z,17.95
2023-03-19T18:14:32.847Z,22.33
2023-03-19T18:17:17.225Z,20.88
2023-03-19T18:19:56.362Z,29.90
2023-03-19T18:22:42.949Z,25.98
2023-03-19T18:25:32.257Z,27.80
2023-03-19T18:27:59.059Z,22.52
2023-03-19T18:30:49.601Z,23.20
2023-03-19T18:33:34.991Z,29.77
2023-03-19T18:36:24.594Z,24.45
2023-03-19T18:39:10.066Z,32.33
2023-03-19T18:41:56.957Z,17.50
2023-03-19T18:44:45.606Z,18.30
2023-03-19T18:47:29.226Z,15.73
2023-03-19T18:50:16.809Z,18.75
2023-03-19T18:53:06.359Z,20.85
2023-03-19T18:55:52.932Z,12.38
2023-03-19T18:58:36.516Z,16.92
2023-03-19T19:01:16.545Z,22.02
2023-03-19T19:04:09.136Z,18.52
2023-03-19T19:07:02.960Z,18.15
2023-03-19T19:09:47.114Z,19.17
2023-03-19T19:12:35.847Z,22.40
2023-03-19T19:15:19.360Z,21.20
2023-03-19T19:18:09.954Z,25.52
2023-03-19T19:20:51.278Z,23.33
2023-03-19T19:23:37.633Z,23.15
2023-03-19T19:26:50.137Z,21.13
2023-03-19T19:29:36.617Z,27.52
2023-03-19T19:32:36.746Z,20.75
2023-03-19T19:35:30.669Z,23.63
2023-03-19T19:38:08.385Z,24.05
2023-03-19T19:40:56.816Z,24.45
2023-03-19T19:43:42.011Z,22.50
2023-03-19T19:46:27.164Z,24.10
2023-03-19T19:49:15.499Z,20.42
2023-03-19T19:51:55.608Z,21.75
2023-03-19T19:54:44.492Z,19.05
2023-03-19T19:57:33.116Z,17.05
2023-03-19T20:00:30.959Z,18.55
2023-03-19T20:03:23.782Z,25.52
2023-03-19T20:06:12.985Z,18.15
2023-03-19T20:09:01.830Z,16.20
2023-03-19T20:11:42.355Z,17.45
2023-03-19T20:14:37.570Z,20.55
2023-03-19T20:17:29.819Z,24.27
2023-03-19T20:20:25.194Z,21.13
2023-03-19T20:23:10.217Z,20.40
2023-03-19T20:26:02.266Z,21.02
2023-03-19T20:28:47.999Z,20.17
2023-03-19T20:31:37.056Z,20.27
2023-03-19T20:34:38.447Z,20.65
2023-03-19T20:37:21.566Z,23.35
2023-03-19T20:40:00.619Z,19.37
2023-03-19T20:42:46.885Z,20.75
2023-03-19T20:45:44.646Z,21.98
2023-03-19T20:48:28.826Z,25.33
2023-03-19T20:51:08.089Z,23.60
2023-03-19T20:53:58.818Z,35.15
2023-03-19T20:56:38.196Z,43.03
2023-03-19T20:59:24.759Z,28.48
2023-03-19T21:02:28.422Z,33.40
2023-03-19T21:05:09.523Z,44.53
2023-03-19T21:08:04.587Z,43.75
2023-03-19T21:11:04.725Z,39.20
2023-03-19T21:13:57.104Z,28.60
2023-03-19T21:16:32.340Z,36.30
2023-03-19T21:19:21.403Z,28.45
2023-03-19T21:21:55.778Z,25.25
2023-03-19T21:24:42.658Z,23.25
2023-03-19T21:27:27.037Z,22.42
2023-03-19T21:30:17.053Z,23.45
2023-03-19T21:32:57.121Z,27.00
2023-03-19T21:35:43.332Z,27.10
2023-03-19T21:38:23.426Z,27.13
2023-03-19T21:41:12.493Z,26.73
2023-03-19T21:44:19.557Z,25.38
2023-03-19T21:47:02.635Z,27.00
2023-03-19T21:49:48.623Z,33.63
2023-03-19T21:52:28.437Z,29.80
2023-03-19T21:55:12.605Z,26.83
2023-03-19T21:58:05.696Z,32.80
2023-03-19T22:00:51.502Z,26.98
2023-03-19T22:03:34.635Z,28.02
2023-03-19T22:06:20.310Z,27.80
2023-03-19T22:09:11.392Z,26.73
2023-03-19T22:11:56.928Z,31.77
2023-03-19T22:14:54.641Z,29.33
2023-03-19T22:17:34.390Z,27.58
2023-03-19T22:20:28.689Z,26.00
2023-03-19T22:25:54.889Z,22.52
2023-03-19T22:28:37.207Z,24.17
2023-03-19T22:31:23.768Z,22.88
2023-03-19T22:34:17.650Z,25.02
2023-03-19T22:37:03.289Z,27.20
2023-03-19T22:39:51.032Z,23.98
2023-03-19T22:42:35.852Z,25.10
2023-03-19T22:45:34.970Z,25.95
2023-03-19T22:48:17.252Z,21.13
2023-03-19T22:51:09.014Z,24.60
2023-03-19T22:53:52.865Z,21.30
2023-03-19T22:56:29.051Z,20.17
2023-03-19T22:59:07.762Z,23.65
2023-03-19T23:01:58.067Z,22.73
2023-03-19T23:04:43.015Z,21.70
2023-03-19T23:07:28.938Z,26.55
2023-03-19T23:10:28.787Z,19.92
2023-03-19T23:13:12.731Z,25.77
2023-03-19T23:15:55.401Z,21.75
2023-03-19T23:18:41.710Z,22.50
2023-03-19T23:21:34.119Z,23.95
2023-03-19T23:24:14.063Z,19.58
2023-03-19T23:26:59.790Z,23.98
2023-03-19T23:29:51.929Z,25.63
2023-03-19T23:32:41.930Z,25.45
2023-03-19T23:35:24.907Z,20.63
2023-03-19T23:38:05.269Z,22.73
2023-03-19T23:40:55.968Z,23.00
2023-03-19T23:43:45.671Z,24.55
2023-03-19T23:46:34.602Z,24.08
2023-03-19T23:49:32.337Z,22.08
2023-03-19T23:52:22.585Z,24.55
2023-03-19T23:55:11.023Z,26.25
2023-03-19T23:57:50.620Z,23.15
